Latest Weather Observations for Applethorpe

IDQ60801

Issued at 5:32 pm EST Saturday 5 September 2015 (issued every 30 minutes, with the page automatically refreshed every 10 minutes)

About weather observations | Map of weather stations | Latest weather observations for QLD | Other Formats
Station Details ID: 041175 Name: APPLETHORPE Lat: -28.62 Lon: 151.95 Height: 871.6 m
Data from the previous 72 hours. | See also: Recent months at Applethorpe
Date/Time
EST
Temp
°C
App
Temp
°C
Dew
Point
Rel
Hum
%
Delta-T
°C
Wind Press
QNH
hPa
Press
MSL
hPa
Rain
since 9 am
mm
Dir
 
Spd
km/h
Gust
km/h
Spd
kts
Gust
kts
05/05:30pm 14.4 12.1 4.8 52 4.7 W 6 9 3 5 1020.9 1019.4 0.0
05/05:00pm 16.1 13.1 2.2 39 6.5 WSW 7 13 4 7 1020.6 1019.1 0.0
05/04:30pm 16.7 13.6 3.7 42 6.3 SW 9 15 5 8 1020.5 1019.0 0.0
05/04:00pm 16.1 13.6 5.0 47 5.5 SW 7 9 4 5 1020.3 1018.8 0.0
05/03:30pm 15.7 13.2 4.7 48 5.4 SW 7 13 4 7 1020.3 1018.8 0.0
05/03:00pm 16.3 13.3 4.2 44 5.9 SW 9 19 5 10 1020.2 1018.7 0.0
05/02:30pm 16.3 13.7 4.0 44 6.0 SW 7 13 4 7 1020.2 1018.7 0.0
05/02:00pm 16.8 13.5 4.4 43 6.1 WSW 11 19 6 10 1020.2 1018.7 0.0
05/01:30pm 18.3 15.1 3.0 36 7.4 W 9 20 5 11 1020.4 1018.9 0.0
05/01:00pm 16.6 13.1 3.3 41 6.4 WSW 11 22 6 12 1020.7 1019.3 0.0
05/12:30pm 16.5 13.4 3.7 42 6.2 W 9 15 5 8 1021.3 1019.8 0.0
05/12:00pm 15.6 13.3 4.8 48 5.3 W 6 11 3 6 1022.0 1020.6 0.0
05/11:30am 15.6 13.3 5.9 52 4.9 W 7 13 4 7 1022.5 1021.0 0.0
05/11:00am 14.8 13.0 7.2 60 3.9 W 6 11 3 6 1023.0 1021.6 0.0
05/10:30am 15.3 13.7 6.4 55 4.5 W 4 9 2 5 1023.5 1022.0 0.0
05/10:00am 14.6 13.1 7.0 60 3.9 NE 4 7 2 4 1023.8 1022.4 0.0
05/09:30am 14.9 13.6 7.8 62 3.7 SE 4 9 2 5 1024.0 1022.6 0.0
05/09:00am 13.7 12.6 8.5 71 2.7 ENE 4 9 2 5 1024.1 1022.7 0.0
05/08:30am 12.6 11.0 8.1 74 2.3 ENE 6 9 3 5 1024.1 1022.7 0.0
05/08:00am 10.7 9.1 7.9 83 1.4 ESE 6 9 3 5 1023.7 1022.2 0.0
05/07:30am 10.2 8.7 8.4 89 0.9 ESE 6 9 3 5 1023.5 1022.0 0.0
05/07:00am 9.3 8.2 8.5 95 0.4 E 4 7 2 4 1023.2 1021.8 0.0
05/06:30am 8.4 7.2 8.0 97 0.2 ENE 4 11 2 6 1023.0 1021.6 0.0
05/06:00am 7.5 6.1 7.1 97 0.2 ENE 4 6 2 3 1022.5 1021.0 0.0
05/05:30am 7.7 7.1 7.3 97 0.2 CALM 0 2 0 1 1022.5 1021.0 0.0
05/05:00am 8.7 7.9 8.1 96 0.3 E 2 7 1 4 1022.0 1020.6 0.0
05/04:30am 8.9 7.8 8.3 96 0.3 ENE 4 6 2 3 1021.7 1020.2 0.0
05/04:00am 9.0 7.9 8.4 96 0.3 ENE 4 9 2 5 1021.5 1020.0 0.0
05/03:30am 8.4 7.2 8.0 97 0.2 ENE 4 6 2 3 1021.4 1019.9 0.0
05/03:00am 7.5 6.8 7.1 97 0.2 CALM 0 0 0 0 1021.4 1019.9 0.0
05/02:30am 7.9 6.6 7.5 97 0.2 N 4 6 2 3 1021.5 1020.0 0.0
05/02:00am 8.4 7.5 7.6 95 0.4 E 2 2 1 1 1021.6 1020.1 0.0
05/01:30am 9.5 8.3 8.1 91 0.7 ESE 4 11 2 6 1021.9 1020.5 0.0
05/01:00am 9.9 8.4 8.3 90 0.8 E 6 11 3 6 1022.2 1020.7 0.0
05/12:30am 10.2 8.5 8.4 89 0.9 E 7 17 4 9 1022.2 1020.7 0.0
05/12:00am 10.1 8.6 8.5 90 0.8 E 6 13 3 7 1022.3 1020.8 0.0
 
Date/Time
EST
Temp
°C
App
Temp
°C
Dew
Point
Rel
Hum
%
Delta-T
°C
Wind Press
QNH
hPa
Press
MSL
hPa
Rain
since 9 am
mm
Dir
 
Spd
km/h
Gust
km/h
Spd
kts
Gust
kts
04/11:30pm 10.1 8.6 8.5 90 0.8 ENE 6 9 3 5 1022.5 1021.0 0.0
04/11:00pm 10.2 9.0 8.0 86 1.1 ENE 4 9 2 5 1022.7 1021.2 0.0
04/10:30pm 10.2 8.6 7.8 85 1.2 ENE 6 11 3 6 1022.7 1021.2 0.0
04/10:00pm 10.2 9.0 8.0 86 1.1 E 4 6 2 3 1022.8 1021.4 0.0
04/09:30pm 10.6 9.0 8.0 84 1.3 E 6 11 3 6 1022.7 1021.2 0.0
04/09:00pm 10.5 8.5 6.9 78 1.8 ENE 7 15 4 8 1022.6 1021.1 0.0
04/08:30pm 9.9 8.7 6.4 79 1.7 E 2 4 1 2 1022.7 1021.2 0.0
04/08:00pm 8.9 7.2 6.0 82 1.4 E 4 6 2 3 1022.3 1020.8 0.0
04/07:30pm 8.0 7.2 6.3 89 0.8 CALM 0 0 0 0 1022.0 1020.6 0.0
04/07:00pm 9.3 8.4 6.2 81 1.5 CALM 0 2 0 1 1021.7 1020.2 0.0
04/06:30pm 9.2 8.3 6.1 81 1.5 CALM 0 0 0 0 1021.4 1019.9 0.0
04/06:00pm 11.1 9.8 5.8 70 2.6 NE 2 4 1 2 1020.9 1019.4 0.0
04/05:30pm 13.2 11.1 5.7 60 3.7 E 6 9 3 5 1020.6 1019.1 0.0
04/05:00pm 14.5 11.8 5.7 55 4.4 ESE 9 15 5 8 1020.3 1018.8 0.0
04/04:30pm 15.5 13.2 5.7 52 4.9 ESE 7 17 4 9 1020.1 1018.6 0.0
04/04:00pm 15.9 13.5 5.3 49 5.3 SE 7 13 4 7 1020.0 1018.5 0.0
04/03:30pm 15.6 13.2 5.1 49 5.2 ESE 7 13 4 7 1019.9 1018.4 0.0
04/03:00pm 16.7 14.6 5.6 48 5.6 ESE 6 15 3 8 1019.8 1018.3 0.0
04/02:30pm 15.9 13.6 5.8 51 5.1 ESE 7 13 4 7 1019.7 1018.1 0.0
04/02:00pm 16.6 14.4 5.5 48 5.6 ESE 6 9 3 5 1019.8 1018.3 0.0
04/01:30pm 15.6 13.2 5.4 50 5.1 ESE 7 13 4 7 1019.8 1018.3 0.0
04/01:00pm 15.8 13.5 5.9 51 5.0 SE 7 15 4 8 1019.9 1018.4 0.0
04/12:30pm 16.1 13.0 5.5 49 5.3 E 11 24 6 13 1019.9 1018.4 0.0
04/12:00pm 15.9 12.5 5.8 51 5.1 ESE 13 28 7 15 1019.9 1018.4 0.0
04/11:30am 16.0 11.5 5.9 51 5.1 ESE 19 35 10 19 1020.0 1018.5 0.0
04/11:00am 15.9 11.8 6.0 52 5.0 ESE 17 30 9 16 1020.4 1018.9 0.0
04/10:30am 15.3 13.0 5.7 52 4.8 SSE 7 13 4 7 1020.4 1018.9 0.0
04/10:00am 14.9 11.5 5.7 54 4.6 SE 13 28 7 15 1020.2 1018.7 0.0
04/09:30am 14.1 11.4 5.4 56 4.3 SSE 9 24 5 13 1020.2 1018.7 0.0
04/09:00am 11.6 10.3 5.9 68 2.8 SSW 2 7 1 4 1019.9 1018.4 4.2
04/08:30am 9.4 6.5 4.7 72 2.2 SW 9 15 5 8 1019.7 1018.1 4.2
04/08:00am 8.2 4.9 4.8 79 1.6 SW 11 17 6 9 1019.4 1017.9 4.2
04/07:30am 7.1 3.8 4.7 85 1.1 SW 11 17 6 9 1019.0 1017.5 4.2
04/07:00am 5.9 3.4 4.8 93 0.5 SSW 7 11 4 6 1018.7 1017.1 4.2
04/06:30am 5.0 2.6 4.1 94 0.4 SSW 6 11 3 6 1018.2 1016.7 4.2
04/06:00am 5.6 3.1 4.0 89 0.7 SSW 6 9 3 5 1017.8 1016.3 4.2
04/05:30am 6.0 2.6 4.2 88 0.8 SW 11 20 6 11 1017.3 1015.7 4.2
04/05:00am 5.8 2.1 4.7 93 0.5 SW 13 19 7 10 1017.4 1015.8 4.2
04/04:30am 6.3 2.6 4.5 88 0.8 SW 13 22 7 12 1017.0 1015.5 4.2
04/04:00am 6.7 1.9 4.7 87 0.9 SW 19 32 10 17 1016.5 1014.9 4.2
04/03:30am 6.9 2.9 5.0 88 0.9 SW 15 22 8 12 1016.5 1014.9 4.2
04/03:00am 7.2 3.7 5.3 88 0.9 SW 13 28 7 15 1016.7 1015.2 4.2
04/02:30am 7.3 3.4 5.2 86 1.0 SW 15 28 8 15 1016.6 1015.0 4.2
04/02:00am 7.6 2.6 4.8 82 1.3 WSW 20 33 11 18 1016.5 1014.9 4.2
04/01:30am 7.5 2.6 4.9 83 1.2 SW 20 35 11 19 1016.3 1014.7 4.2
04/01:00am 7.4 2.7 5.0 85 1.1 SW 19 35 10 19 1016.3 1014.7 4.2
04/12:30am 7.6 2.7 5.0 83 1.2 WSW 20 32 11 17 1016.4 1014.8 4.2
04/12:00am 7.8 3.1 5.2 84 1.2 WSW 19 30 10 16 1016.7 1015.2 4.2
 
Date/Time
EST
Temp
°C
App
Temp
°C
Dew
Point
Rel
Hum
%
Delta-T
°C
Wind Press
QNH
hPa
Press
MSL
hPa
Rain
since 9 am
mm
Dir
 
Spd
km/h
Gust
km/h
Spd
kts
Gust
kts
03/11:30pm 8.1 3.4 5.3 82 1.3 WSW 19 30 10 16 1016.8 1015.3 4.2
03/11:00pm 7.9 4.0 5.4 84 1.2 SW 15 22 8 12 1017.0 1015.5 4.2
03/10:30pm 8.0 3.8 5.5 84 1.2 WSW 17 30 9 16 1016.7 1015.2 4.2
03/10:00pm 8.1 3.9 5.6 84 1.2 WSW 17 28 9 15 1017.0 1015.5 4.2
03/09:30pm 8.4 4.1 5.2 80 1.5 WSW 17 33 9 18 1016.8 1015.3 4.2
03/09:00pm 8.1 4.3 5.8 85 1.1 W 15 22 8 12 1016.4 1014.8 4.2
03/08:30pm 8.1 4.3 5.6 84 1.2 W 15 26 8 14 1016.4 1014.8 4.2
03/08:00pm 7.8 3.6 5.7 86 1.0 W 17 26 9 14 1016.0 1014.4 4.2
03/07:30pm 7.6 3.4 5.7 88 0.9 W 17 24 9 13 1015.4 1013.8 4.2
03/07:00pm 7.6 3.8 5.7 88 0.9 W 15 26 8 14 1015.2 1013.6 4.2
03/06:30pm 7.8 4.8 5.9 88 0.9 W 11 17 6 9 1015.0 1013.4 4.2
03/06:00pm 7.6 4.6 5.9 89 0.8 WSW 11 20 6 11 1014.8 1013.2 4.2
03/05:30pm 8.0 3.5 6.3 89 0.8 WSW 19 39 10 21 1014.1 1012.5 4.2
03/05:00pm 8.3 4.0 7.1 92 0.6 WSW 19 35 10 19 1013.7 1012.0 4.2
03/04:30pm 9.6 6.0 6.8 83 1.4 WSW 15 28 8 15 1012.5 1010.8 2.4
03/04:00pm 9.2 5.2 6.5 83 1.3 WSW 17 30 9 16 1012.6 1010.9 2.4
03/03:30pm 9.2 4.8 6.5 83 1.3 W 19 28 10 15 1012.3 1010.6 2.0
03/03:00pm 11.3 6.8 4.3 62 3.3 W 17 35 9 19 1011.3 1009.6 0.2
03/02:30pm 13.5 8.6 2.2 46 5.2 W 17 33 9 18 1010.9 1009.3 0.0
03/02:00pm 13.2 8.8 2.6 48 4.9 W 15 32 8 17 1010.9 1009.3 0.0
03/01:30pm 13.0 7.5 1.8 46 5.1 WSW 20 39 11 21 1011.3 1009.6 0.0
03/01:00pm 14.4 9.0 1.2 40 6.0 W 19 35 10 19 1011.1 1009.4 0.0
03/12:30pm 14.9 9.3 0.1 36 6.6 W 19 39 10 21 1011.5 1009.8 0.0
03/12:00pm 14.8 9.1 0.3 37 6.5 W 20 48 11 26 1012.0 1010.4 0.0
03/11:30am 13.9 9.1 0.1 39 6.1 W 15 30 8 16 1012.4 1010.7 0.0
03/11:00am 13.3 6.9 0.7 42 5.6 WSW 24 39 13 21 1013.2 1011.6 0.0
03/10:30am 13.2 7.5 2.9 49 4.8 WSW 22 41 12 22 1013.6 1011.9 0.0
03/10:00am 12.8 7.3 4.0 55 4.2 WSW 22 37 12 20 1013.6 1011.9 0.0
03/09:30am 12.9 7.6 5.1 59 3.8 WSW 22 41 12 22 1013.2 1011.6 0.0
03/09:00am 13.1 9.7 7.7 70 2.8 W 15 32 8 17 1013.2 1011.6 5.8
03/08:30am 12.5 8.5 8.3 75 2.2 W 19 35 10 19 1013.2 1011.6 5.8
03/08:00am 12.4 8.4 9.2 81 1.7 W 20 41 11 22 1012.9 1011.3 5.8
03/07:30am 12.7 9.4 10.9 89 1.0 W 19 33 10 18 1012.4 1010.7 5.8
03/07:00am 13.3 10.1 11.3 88 1.1 W 19 37 10 20 1011.9 1010.3 5.8
03/06:30am 13.9 12.2 12.3 90 0.9 NW 13 24 7 13 1011.7 1010.1 5.8
03/06:00am 13.9 12.7 12.7 92 0.7 WNW 11 24 6 13 1011.6 1009.9 5.8
03/05:30am 14.0 12.1 13.0 94 0.6 NNW 15 30 8 16 1011.8 1010.2 5.8
03/05:00am 13.5 10.8 12.8 95 0.4 N 19 35 10 19 1011.3 1009.6 5.8
03/04:30am 13.1 11.3 12.2 94 0.5 NNW 13 26 7 14 1011.5 1009.8 4.8
03/04:00am 12.7 10.8 11.8 94 0.5 N 13 22 7 12 1011.4 1009.7 2.6
03/03:30am 12.8 9.2 11.9 94 0.5 N 22 37 12 20 1011.6 1009.9 1.6
03/03:00am 12.4 8.9 10.8 90 0.9 N 20 35 11 19 1011.3 1009.6 0.8
03/02:30am 12.2 7.9 9.4 83 1.5 NNE 22 33 12 18 1012.0 1010.4 0.8
03/02:00am 11.8 9.5 8.9 82 1.5 N 11 20 6 11 1012.7 1011.1 0.8
03/01:30am 11.3 9.6 8.4 82 1.5 NNE 7 13 4 7 1013.8 1012.2 0.8
03/01:00am 11.2 8.3 8.3 82 1.5 NNE 13 20 7 11 1014.0 1012.4 0.8
03/12:30am 11.7 8.3 7.8 77 2.0 N 15 24 8 13 1015.6 1014.0 0.6
03/12:00am 12.2 10.0 6.4 67 2.9 NNE 7 15 4 8 1015.0 1013.4 0.0
 
Date/Time
EST
Temp
°C
App
Temp
°C
Dew
Point
Rel
Hum
%
Delta-T
°C
Wind Press
QNH
hPa
Press
MSL
hPa
Rain
since 9 am
mm
Dir
 
Spd
km/h
Gust
km/h
Spd
kts
Gust
kts
02/11:30pm 11.1 10.2 7.8 80 1.7 NE 2 6 1 3 1015.8 1014.3 0.0
02/11:00pm 12.1 10.4 6.0 66 3.0 W 4 6 2 3 1017.4 1015.8 0.0
02/10:30pm 13.2 10.9 4.7 56 4.1 NNW 6 9 3 5 1017.0 1015.5 0.0
02/10:00pm 13.1 11.4 3.8 53 4.4 NE 2 6 1 3 1016.7 1015.2 0.0
02/09:30pm 13.3 11.2 3.8 52 4.5 NE 4 7 2 4 1016.7 1015.2 0.0
02/09:00pm 13.6 10.8 2.9 48 5.0 NNE 7 9 4 5 1016.4 1014.8 0.0
02/08:30pm 12.5 10.0 3.6 54 4.2 NE 6 9 3 5 1016.0 1014.4 0.0
02/08:00pm 11.5 9.3 3.6 58 3.7 NE 4 6 2 3 1016.1 1014.5 0.0
02/07:30pm 12.0 9.5 3.7 57 3.9 NNE 6 6 3 3 1016.2 1014.6 0.0
02/07:00pm 11.9 9.5 4.3 59 3.6 NE 6 7 3 4 1016.5 1014.9 0.0
02/06:30pm 11.7 10.5 4.6 62 3.4 CALM 0 0 0 0 1016.4 1014.8 0.0
02/06:00pm 13.4 11.3 3.7 52 4.6 NE 4 6 2 3 1015.7 1014.2 0.0

Other Formats:

Comma delimited format used in spreadsheet applications
http://www.bom.gov.au/fwo/IDQ60801/IDQ60801.94553.axf

JavaScript Object Notation format (JSON) in row-major order
http://www.bom.gov.au/fwo/IDQ60801/IDQ60801.94553.json